Time;durP1;ratioP1;P1;durP2;ratioP2;P2;SDS_P1;SDS_P2;PMS_P1;PMS_P2;Temp;Humidity;BMP_temperature;BMP_pressure;BME280_temperature;BME280_humidity;BME280_pressure;Samples;Min_cycle;Max_cycle;Signal;HPM_P1;HPM_P2
2022/06/15 00:00:40;;;;;;;4.55;2.72;;;;;;;;;;5056999;28;20052;-85
2022/06/15 00:03:07;;;;;;;4.50;2.67;;;;;;;;;;5057184;28;20033;-85
2022/06/15 00:05:32;;;;;;;4.43;2.78;;;;;;;;;;5055940;28;20036;-84
2022/06/15 00:07:58;;;;;;;6.97;2.85;;;;;;;;;;5055037;28;20033;-85
2022/06/15 00:10:24;;;;;;;5.53;2.80;;;;;;;;;;5055749;28;20040;-85
2022/06/15 00:12:50;;;;;;;7.53;2.90;;;;;;;;;;5056413;28;20040;-85
2022/06/15 00:15:16;;;;;;;7.93;3.00;;;;;;;;;;5055939;28;20033;-85
2022/06/15 00:17:41;;;;;;;5.03;3.15;;;;;;;;;;5056473;28;20037;-85
2022/06/15 00:20:16;;;;;;;7.15;3.13;;;;;;;;;;5056157;28;20041;-85
2022/06/15 00:22:42;;;;;;;4.05;2.70;;;;;;;;;;5054949;28;20129;-85
2022/06/15 00:25:09;;;;;;;4.90;2.80;;;;;;;;;;5053866;28;20432;-85
2022/06/15 00:27:35;;;;;;;4.68;2.85;;;;;;;;;;5056028;28;20036;-85
2022/06/15 00:30:01;;;;;;;4.35;2.70;;;;;;;;;;5054393;28;20087;-85
2022/06/15 00:32:26;;;;;;;7.68;2.90;;;;;;;;;;5054768;28;20032;-85
2022/06/15 00:34:52;;;;;;;5.97;3.25;;;;;;;;;;5037859;28;20041;-85
2022/06/15 00:37:17;;;;;;;4.63;2.97;;;;;;;;;;5056445;28;20037;-85
2022/06/15 00:39:43;;;;;;;7.25;2.92;;;;;;;;;;5054454;28;20052;-85
2022/06/15 00:42:12;;;;;;;3.78;2.60;;;;;;;;;;5054176;28;20378;-85
2022/06/15 00:44:38;;;;;;;4.85;3.30;;;;;;;;;;5054831;28;20041;-85
2022/06/15 00:47:08;;;;;;;4.47;2.55;;;;;;;;;;5054454;28;20032;-85
2022/06/15 00:49:47;;;;;;;6.60;2.60;;;;;;;;;;5056103;28;20604;-85
2022/06/15 00:52:17;;;;;;;4.28;2.72;;;;;;;;;;5053925;28;20033;-85
2022/06/15 00:54:49;;;;;;;6.38;2.65;;;;;;;;;;5055021;28;20021;-85
2022/06/15 00:57:15;;;;;;;7.95;2.72;;;;;;;;;;5055429;28;20128;-85
2022/06/15 01:00:01;;;;;;;4.95;2.80;;;;;;;;;;5055402;28;20052;-85
2022/06/15 01:02:28;;;;;;;4.60;2.50;;;;;;;;;;5055601;28;20037;-85
2022/06/15 01:04:59;;;;;;;6.18;2.92;;;;;;;;;;5053573;28;20047;-85
2022/06/15 01:07:45;;;;;;;5.70;2.85;;;;;;;;;;5055934;28;20037;-85
2022/06/15 01:10:36;;;;;;;6.63;3.10;;;;;;;;;;5054474;28;20037;-85
2022/06/15 01:13:30;;;;;;;5.22;2.78;;;;;;;;;;5054626;28;20037;-85
2022/06/15 01:16:22;;;;;;;4.40;2.90;;;;;;;;;;5054353;28;20519;-85
2022/06/15 01:19:08;;;;;;;4.60;2.92;;;;;;;;;;5037650;28;20064;-85
2022/06/15 01:21:49;;;;;;;3.80;2.80;;;;;;;;;;5054513;28;20032;-84
2022/06/15 01:24:35;;;;;;;4.95;2.50;;;;;;;;;;5037263;28;20120;-85
2022/06/15 01:27:13;;;;;;;;;;;;;;;;;;5054866;28;20123;-85
2022/06/15 01:29:47;;;;;;;7.55;3.50;;;;;;;;;;5055249;28;19912;-85
2022/06/15 01:32:37;;;;;;;5.40;2.95;;;;;;;;;;5055671;28;20119;-85
2022/06/15 01:35:14;;;;;;;6.55;2.70;;;;;;;;;;5054856;28;20025;-85
2022/06/15 01:37:58;;;;;;;6.20;2.80;;;;;;;;;;5055427;28;20037;-85
2022/06/15 01:40:27;;;;;;;;;;;;;;;;;;5054714;28;20025;-85
2022/06/15 01:42:58;;;;;;;6.55;2.78;;;;;;;;;;5054267;28;19908;-85
2022/06/15 01:45:29;;;;;;;6.15;3.00;;;;;;;;;;5055751;28;20029;-85
2022/06/15 01:47:59;;;;;;;8.48;3.15;;;;;;;;;;5057918;28;20025;-85
2022/06/15 01:50:34;;;;;;;5.60;2.95;;;;;;;;;;5058611;28;20055;-85
2022/06/15 01:53:09;;;;;;;5.65;3.10;;;;;;;;;;5058175;28;20055;-85
2022/06/15 01:55:41;;;;;;;6.45;3.30;;;;;;;;;;5057433;28;20490;-85
2022/06/15 01:58:12;;;;;;;3.60;2.60;;;;;;;;;;5041535;28;20033;-85
2022/06/15 02:00:39;;;;;;;5.82;2.90;;;;;;;;;;5057348;28;20128;-85
2022/06/15 02:03:08;;;;;;;4.82;2.95;;;;;;;;;;5057194;28;20413;-85
2022/06/15 02:06:02;;;;;;;4.63;3.10;;;;;;;;;;5057616;28;20060;-84
2022/06/15 02:08:37;;;;;;;5.80;2.70;;;;;;;;;;5057349;28;20029;-85
2022/06/15 02:11:21;;;;;;;4.30;3.17;;;;;;;;;;5058435;28;20385;-85
2022/06/15 02:14:14;;;;;;;5.45;2.95;;;;;;;;;;5056619;28;20033;-85
2022/06/15 02:16:51;;;;;;;4.05;3.03;;;;;;;;;;5057271;28;20036;-85
2022/06/15 02:19:23;;;;;;;3.97;2.83;;;;;;;;;;5057113;28;20079;-85
2022/06/15 02:21:52;;;;;;;11.02;3.33;;;;;;;;;;5056959;28;20041;-85
2022/06/15 02:24:21;;;;;;;3.88;2.85;;;;;;;;;;5039872;28;20040;-85
2022/06/15 02:26:48;;;;;;;4.70;3.17;;;;;;;;;;5056946;28;20021;-85
2022/06/15 02:29:22;;;;;;;4.35;2.88;;;;;;;;;;5040909;28;20040;-85
2022/06/15 02:31:54;;;;;;;5.50;2.75;;;;;;;;;;5056818;28;20043;-85
2022/06/15 02:34:20;;;;;;;4.53;2.90;;;;;;;;;;5056189;28;20639;-85
2022/06/15 02:36:46;;;;;;;7.50;3.10;;;;;;;;;;5056850;28;20040;-85
2022/06/15 02:39:15;;;;;;;4.82;2.80;;;;;;;;;;5057430;28;20105;-85
2022/06/15 02:41:41;;;;;;;4.15;2.75;;;;;;;;;;5056954;28;20065;-85
2022/06/15 02:44:12;;;;;;;5.38;2.90;;;;;;;;;;5039688;28;20033;-85
2022/06/15 02:46:43;;;;;;;4.05;2.90;;;;;;;;;;5040140;28;20025;-85
2022/06/15 02:49:10;;;;;;;4.93;2.70;;;;;;;;;;5040250;28;20040;-84
2022/06/15 02:51:40;;;;;;;8.82;2.83;;;;;;;;;;5056086;28;20029;-84
2022/06/15 02:54:38;;;;;;;4.60;2.70;;;;;;;;;;5056167;28;20081;-85
2022/06/15 02:57:11;;;;;;;4.28;2.80;;;;;;;;;;5056091;28;20399;-85
2022/06/15 02:59:37;;;;;;;6.65;3.30;;;;;;;;;;5056507;28;20094;-84
2022/06/15 03:02:04;;;;;;;5.63;3.17;;;;;;;;;;5055997;28;20130;-85
2022/06/15 03:04:33;;;;;;;4.82;3.00;;;;;;;;;;5056458;28;20041;-85
2022/06/15 03:06:59;;;;;;;3.90;2.90;;;;;;;;;;5056640;28;20028;-85
2022/06/15 03:09:26;;;;;;;4.75;3.20;;;;;;;;;;5056473;28;20029;-85
2022/06/15 03:11:52;;;;;;;5.95;3.30;;;;;;;;;;5056227;28;20094;-85
2022/06/15 03:14:34;;;;;;;4.18;2.92;;;;;;;;;;5056683;28;20114;-85
2022/06/15 03:17:02;;;;;;;6.63;2.80;;;;;;;;;;5056258;28;20509;-85
2022/06/15 03:19:38;;;;;;;5.10;3.25;;;;;;;;;;5056709;28;20040;-85
2022/06/15 03:22:04;;;;;;;5.68;3.20;;;;;;;;;;5056475;28;20037;-85
2022/06/15 03:24:33;;;;;;;5.63;3.08;;;;;;;;;;5055457;28;20508;-84
2022/06/15 03:27:00;;;;;;;6.95;3.15;;;;;;;;;;5055665;28;20029;-85
2022/06/15 03:29:31;;;;;;;6.30;2.80;;;;;;;;;;5056201;28;20017;-84
2022/06/15 03:32:01;;;;;;;4.60;2.90;;;;;;;;;;5056376;28;20032;-85
2022/06/15 03:34:31;;;;;;;6.78;2.92;;;;;;;;;;5055691;28;20211;-84
2022/06/15 03:36:57;;;;;;;4.88;3.22;;;;;;;;;;5055816;28;20528;-85
2022/06/15 03:39:23;;;;;;;6.28;3.10;;;;;;;;;;5055755;28;20040;-85
2022/06/15 03:41:51;;;;;;;5.63;2.95;;;;;;;;;;5055704;28;20041;-84
2022/06/15 03:44:17;;;;;;;4.68;3.13;;;;;;;;;;5055562;28;20417;-84
2022/06/15 03:46:42;;;;;;;5.75;2.80;;;;;;;;;;5055690;28;20032;-85
2022/06/15 03:49:17;;;;;;;5.30;3.00;;;;;;;;;;5055272;28;20044;-85
2022/06/15 03:51:45;;;;;;;5.20;3.10;;;;;;;;;;5055684;28;20033;-84
2022/06/15 03:54:11;;;;;;;7.72;3.25;;;;;;;;;;5054982;28;20050;-84
2022/06/15 03:56:46;;;;;;;5.05;2.90;;;;;;;;;;5055592;28;20059;-84
2022/06/15 03:59:17;;;;;;;4.35;2.75;;;;;;;;;;5055167;28;20036;-84
2022/06/15 04:01:46;;;;;;;4.57;2.85;;;;;;;;;;5056722;28;20033;-84
2022/06/15 04:04:12;;;;;;;5.15;2.72;;;;;;;;;;5054596;28;20032;-85
2022/06/15 04:06:41;;;;;;;6.70;2.80;;;;;;;;;;5038717;28;20123;-85
2022/06/15 04:09:06;;;;;;;4.85;2.58;;;;;;;;;;5054805;28;20040;-84
2022/06/15 04:14:27;;;;;;;7.03;3.00;;;;;;;;;;5054536;28;20402;-84
2022/06/15 04:17:02;;;;;;;5.30;3.38;;;;;;;;;;5039406;28;20115;-84
2022/06/15 04:22:49;;;;;;;7.18;2.80;;;;;;;;;;5054959;28;20120;-84
2022/06/15 04:25:15;;;;;;;4.18;2.78;;;;;;;;;;5054227;28;20056;-85
2022/06/15 04:27:43;;;;;;;5.35;2.80;;;;;;;;;;5055071;28;20449;-84
2022/06/15 04:30:12;;;;;;;3.88;2.80;;;;;;;;;;5054917;28;20420;-84
2022/06/15 04:32:38;;;;;;;5.35;3.10;;;;;;;;;;5054871;28;20033;-84
2022/06/15 04:35:07;;;;;;;5.75;2.70;;;;;;;;;;5053911;28;20524;-84
2022/06/15 04:37:37;;;;;;;5.25;2.90;;;;;;;;;;5054452;28;20087;-85
2022/06/15 04:40:12;;;;;;;5.55;2.72;;;;;;;;;;5054600;28;20068;-84
2022/06/15 04:42:39;;;;;;;9.63;2.70;;;;;;;;;;5037659;28;20055;-84
2022/06/15 04:45:06;;;;;;;5.82;2.50;;;;;;;;;;5054410;28;20020;-84
2022/06/15 04:47:35;;;;;;;4.38;2.67;;;;;;;;;;5054289;28;20025;-84
2022/06/15 04:50:03;;;;;;;6.47;2.63;;;;;;;;;;5054414;28;20041;-85
2022/06/15 04:52:34;;;;;;;7.00;2.90;;;;;;;;;;5055520;28;20075;-84
2022/06/15 04:55:00;;;;;;;3.92;2.47;;;;;;;;;;5054884;28;20025;-84
2022/06/15 04:57:26;;;;;;;6.60;2.60;;;;;;;;;;5055288;28;20024;-85
2022/06/15 04:59:53;;;;;;;4.75;2.53;;;;;;;;;;5054674;28;20037;-85
2022/06/15 05:02:19;;;;;;;5.65;2.50;;;;;;;;;;5056267;28;20060;-85
2022/06/15 05:04:44;;;;;;;3.45;2.28;;;;;;;;;;5054725;28;20029;-85
2022/06/15 05:07:13;;;;;;;4.22;2.60;;;;;;;;;;5055028;28;20068;-85
2022/06/15 05:09:40;;;;;;;4.40;2.67;;;;;;;;;;5055171;28;20033;-85
2022/06/15 05:12:07;;;;;;;4.75;2.70;;;;;;;;;;5054803;28;20031;-84
2022/06/15 05:14:36;;;;;;;4.07;2.67;;;;;;;;;;5038012;28;20413;-84
2022/06/15 05:17:05;;;;;;;5.68;2.67;;;;;;;;;;5052873;28;20071;-83
2022/06/15 05:19:31;;;;;;;6.80;2.72;;;;;;;;;;5053729;28;20028;-85
2022/06/15 05:21:57;;;;;;;4.25;2.50;;;;;;;;;;5054111;28;20036;-85
2022/06/15 05:24:23;;;;;;;4.18;2.63;;;;;;;;;;5053474;28;20040;-84
2022/06/15 05:26:58;;;;;;;5.55;2.78;;;;;;;;;;5055032;28;20033;-84
2022/06/15 05:29:25;;;;;;;5.03;2.67;;;;;;;;;;5054012;28;20502;-84
2022/06/15 05:31:56;;;;;;;4.97;2.70;;;;;;;;;;5038880;28;20044;-84
2022/06/15 05:34:23;;;;;;;6.97;4.05;;;;;;;;;;5037092;28;20121;-85
2022/06/15 05:36:49;;;;;;;5.38;2.70;;;;;;;;;;5053888;28;20091;-85
2022/06/15 05:39:16;;;;;;;4.25;2.42;;;;;;;;;;5052602;28;20031;-86
2022/06/15 05:41:43;;;;;;;4.85;2.67;;;;;;;;;;5054089;28;20382;-84
2022/06/15 05:44:53;;;;;;;4.30;2.58;;;;;;;;;;5037902;28;20044;-84
2022/06/15 05:47:02;;;;;;;8.38;2.70;;;;;;;;;;5045454;28;20041;-85
2022/06/15 05:49:46;;;;;;;3.20;2.30;;;;;;;;;;5054845;28;20068;-85
2022/06/15 05:52:15;;;;;;;6.68;2.40;;;;;;;;;;5054257;28;20082;-85
2022/06/15 05:54:44;;;;;;;5.30;2.30;;;;;;;;;;5038627;28;20588;-85
2022/06/15 05:57:24;;;;;;;3.83;2.38;;;;;;;;;;5056061;28;20061;-85
2022/06/15 05:59:50;;;;;;;5.30;2.40;;;;;;;;;;5054944;28;20033;-85
2022/06/15 06:02:19;;;;;;;3.13;2.10;;;;;;;;;;5038812;28;20033;-86
2022/06/15 06:04:44;;;;;;;3.80;2.40;;;;;;;;;;5034528;28;20120;-85
2022/06/15 06:07:11;;;;;;;4.97;2.45;;;;;;;;;;5037197;28;20061;-85
2022/06/15 06:09:36;;;;;;;9.15;2.53;;;;;;;;;;5036670;28;20037;-85
2022/06/15 06:12:03;;;;;;;6.88;2.63;;;;;;;;;;5035724;28;20044;-86
2022/06/15 06:14:28;;;;;;;4.32;2.33;;;;;;;;;;5033876;28;20389;-85
2022/06/15 06:16:54;;;;;;;5.10;2.40;;;;;;;;;;5035578;28;20033;-85
2022/06/15 06:19:20;;;;;;;8.48;2.40;;;;;;;;;;5034011;28;20041;-85
2022/06/15 06:21:45;;;;;;;5.72;2.45;;;;;;;;;;5050795;23;20052;-84
2022/06/15 06:24:11;;;;;;;3.42;2.30;;;;;;;;;;5028579;28;20025;-85
2022/06/15 06:26:37;;;;;;;4.70;2.22;;;;;;;;;;5034285;28;20049;-84
2022/06/15 06:29:05;;;;;;;3.65;2.15;;;;;;;;;;5030536;28;20037;-82
2022/06/15 06:31:31;;;;;;;3.67;2.20;;;;;;;;;;5040552;28;20038;-83
2022/06/15 06:33:57;;;;;;;4.60;2.33;;;;;;;;;;5042569;28;20042;-82
2022/06/15 06:36:29;;;;;;;3.58;2.42;;;;;;;;;;5042720;28;20067;-85
2022/06/15 06:38:55;;;;;;;6.88;2.20;;;;;;;;;;5028262;28;20033;-83
2022/06/15 06:41:24;;;;;;;3.45;2.10;;;;;;;;;;5045125;28;20048;-83
2022/06/15 06:43:49;;;;;;;3.97;2.20;;;;;;;;;;5045690;28;20049;-82
2022/06/15 06:46:16;;;;;;;5.35;2.22;;;;;;;;;;5045324;28;20052;-86
2022/06/15 06:48:42;;;;;;;5.82;2.80;;;;;;;;;;5044937;28;20029;-86
2022/06/15 06:51:07;;;;;;;4.32;2.25;;;;;;;;;;5045311;28;20037;-85
2022/06/15 06:53:33;;;;;;;3.88;2.33;;;;;;;;;;5044846;28;20041;-85
2022/06/15 06:56:03;;;;;;;4.35;2.28;;;;;;;;;;5040180;28;20041;-84
2022/06/15 06:58:29;;;;;;;5.47;2.45;;;;;;;;;;5040536;28;20513;-83
2022/06/15 07:00:54;;;;;;;5.18;2.15;;;;;;;;;;5022163;28;20045;-84
2022/06/15 07:03:20;;;;;;;5.38;2.13;;;;;;;;;;5040290;28;20037;-84
2022/06/15 07:05:46;;;;;;;4.90;2.63;;;;;;;;;;5038699;28;20033;-83
2022/06/15 07:08:13;;;;;;;5.68;2.10;;;;;;;;;;5036260;28;20059;-84
2022/06/15 07:10:40;;;;;;;3.35;2.10;;;;;;;;;;5034564;28;20413;-82
2022/06/15 07:13:05;;;;;;;4.07;2.13;;;;;;;;;;5047960;28;20067;-84
2022/06/15 07:15:31;;;;;;;5.35;2.60;;;;;;;;;;5044728;28;20072;-84
2022/06/15 07:17:58;;;;;;;5.80;2.63;;;;;;;;;;5049241;28;20041;-83
2022/06/15 07:20:25;;;;;;;3.75;2.20;;;;;;;;;;5042952;28;20021;-84
2022/06/15 07:22:51;;;;;;;5.13;2.40;;;;;;;;;;5043723;28;20040;-84
2022/06/15 07:25:16;;;;;;;4.15;2.45;;;;;;;;;;5039694;28;20057;-84
2022/06/15 07:27:43;;;;;;;8.38;2.28;;;;;;;;;;5041260;28;20064;-84
2022/06/15 07:30:13;;;;;;;7.90;2.40;;;;;;;;;;5022828;28;20041;-82
2022/06/15 07:32:40;;;;;;;4.55;1.88;;;;;;;;;;5039472;28;20041;-84
2022/06/15 07:35:10;;;;;;;4.07;2.28;;;;;;;;;;5035829;28;20037;-82
2022/06/15 07:37:36;;;;;;;5.22;2.17;;;;;;;;;;5038344;28;20038;-81
2022/06/15 07:40:02;;;;;;;7.63;2.40;;;;;;;;;;5038000;28;20048;-86
2022/06/15 07:42:27;;;;;;;4.50;2.20;;;;;;;;;;5039014;28;20040;-84
2022/06/15 07:44:53;;;;;;;7.75;2.50;;;;;;;;;;5038783;28;20030;-85
2022/06/15 07:50:04;;;;;;;5.47;2.50;;;;;;;;;;5037733;28;20535;-85
2022/06/15 07:52:36;;;;;;;7.78;2.42;;;;;;;;;;5038443;28;20045;-85
2022/06/15 07:55:03;;;;;;;4.30;2.22;;;;;;;;;;5023090;28;20037;-86
2022/06/15 07:57:28;;;;;;;4.32;2.25;;;;;;;;;;5042266;28;20085;-87
2022/06/15 07:59:54;;;;;;;4.80;2.50;;;;;;;;;;5041804;28;20056;-85
2022/06/15 08:02:20;;;;;;;5.68;2.08;;;;;;;;;;5040116;28;20049;-85
2022/06/15 08:04:46;;;;;;;5.10;2.20;;;;;;;;;;5040315;28;20037;-86
2022/06/15 08:07:14;;;;;;;5.00;2.13;;;;;;;;;;5040418;28;20029;-85
2022/06/15 08:09:40;;;;;;;5.70;2.03;;;;;;;;;;5041809;28;20468;-85
2022/06/15 08:12:18;;;;;;;4.57;2.30;;;;;;;;;;5041281;28;20021;-84
2022/06/15 08:14:51;;;;;;;4.60;2.30;;;;;;;;;;5043238;28;20109;-85
2022/06/15 08:17:25;;;;;;;7.07;2.20;;;;;;;;;;5032338;28;20033;-84
2022/06/15 08:19:55;;;;;;;5.13;2.20;;;;;;;;;;5037797;28;20049;-87
2022/06/15 08:22:20;;;;;;;2.67;1.77;;;;;;;;;;5043168;28;20535;-84
2022/06/15 08:24:47;;;;;;;5.07;2.10;;;;;;;;;;5037835;28;20541;-86
2022/06/15 08:27:15;;;;;;;4.50;2.13;;;;;;;;;;5038828;28;20080;-86
2022/06/15 08:29:41;;;;;;;5.15;2.13;;;;;;;;;;5037671;28;20044;-85
2022/06/15 08:32:07;;;;;;;4.55;2.10;;;;;;;;;;5039568;28;20025;-86
2022/06/15 08:34:37;;;;;;;3.85;2.20;;;;;;;;;;5039526;28;20053;-83
2022/06/15 08:37:05;;;;;;;5.38;2.13;;;;;;;;;;5038293;28;20056;-84
2022/06/15 08:39:30;;;;;;;3.53;2.03;;;;;;;;;;5041384;28;20033;-85
2022/06/15 08:42:05;;;;;;;8.68;2.00;;;;;;;;;;5039367;28;20388;-85
2022/06/15 08:44:31;;;;;;;3.40;2.00;;;;;;;;;;5038639;28;20094;-85
2022/06/15 08:47:29;;;;;;;6.57;2.28;;;;;;;;;;5040359;28;20033;-86
2022/06/15 08:50:12;;;;;;;4.47;1.90;;;;;;;;;;5035606;28;20045;-87
2022/06/15 08:52:42;;;;;;;3.28;2.20;;;;;;;;;;5040321;28;20037;-87
2022/06/15 08:55:17;;;;;;;5.85;1.90;;;;;;;;;;5038475;28;20124;-85
2022/06/15 08:57:55;;;;;;;3.42;1.90;;;;;;;;;;5022942;28;20044;-86
2022/06/15 09:00:32;;;;;;;5.35;2.00;;;;;;;;;;5042365;28;20124;-86
2022/06/15 09:03:09;;;;;;;5.15;2.03;;;;;;;;;;5041806;28;20044;-86
2022/06/15 09:05:50;;;;;;;3.20;2.08;;;;;;;;;;5043286;28;20108;-85
2022/06/15 09:08:21;;;;;;;6.88;2.25;;;;;;;;;;5042638;28;20038;-87
2022/06/15 09:11:19;;;;;;;3.58;2.15;;;;;;;;;;5043009;28;20093;-84
2022/06/15 09:14:15;;;;;;;11.02;2.72;;;;;;;;;;5011976;28;20064;-83
2022/06/15 09:17:02;;;;;;;7.50;2.20;;;;;;;;;;5034142;28;20633;-85
2022/06/15 09:19:33;;;;;;;4.90;2.20;;;;;;;;;;5034511;28;20552;-84
2022/06/15 09:22:11;;;;;;;7.47;2.70;;;;;;;;;;5033857;28;20068;-85
2022/06/15 09:24:53;;;;;;;5.82;2.45;;;;;;;;;;5033923;28;20029;-85
2022/06/15 09:27:23;;;;;;;3.85;2.30;;;;;;;;;;5032462;28;20067;-86
2022/06/15 09:30:10;;;;;;;4.68;2.38;;;;;;;;;;5043169;28;20037;-85
2022/06/15 09:32:40;;;;;;;4.85;2.38;;;;;;;;;;5037365;28;20038;-84
2022/06/15 09:35:16;;;;;;;23.63;3.20;;;;;;;;;;5037781;28;20053;-84
2022/06/15 09:37:44;;;;;;;22.55;3.63;;;;;;;;;;5036978;28;20064;-84
2022/06/15 09:40:10;;;;;;;7.38;2.70;;;;;;;;;;5039090;28;20073;-85
2022/06/15 09:42:51;;;;;;;4.45;2.67;;;;;;;;;;5038723;28;20546;-86
2022/06/15 09:45:30;;;;;;;5.55;2.42;;;;;;;;;;5036375;28;20037;-84
2022/06/15 09:48:23;;;;;;;4.32;2.55;;;;;;;;;;5039199;28;20044;-87
2022/06/15 09:51:01;;;;;;;4.47;2.40;;;;;;;;;;5039332;28;20515;-86
2022/06/15 09:54:02;;;;;;;5.53;2.35;;;;;;;;;;5038817;28;20033;-86
2022/06/15 09:56:28;;;;;;;5.50;2.20;;;;;;;;;;4961717;28;20511;-88
2022/06/15 09:58:58;;;;;;;5.38;2.50;;;;;;;;;;5021657;28;20050;-88
2022/06/15 10:01:41;;;;;;;4.15;2.33;;;;;;;;;;5040059;28;20559;-86
2022/06/15 10:04:15;;;;;;;4.60;2.67;;;;;;;;;;5038890;28;20540;-89
2022/06/15 10:06:41;;;;;;;6.70;2.70;;;;;;;;;;5043873;28;20113;-86
2022/06/15 10:09:10;;;;;;;4.10;2.53;;;;;;;;;;5045720;28;20072;-86
2022/06/15 10:11:42;;;;;;;6.60;2.40;;;;;;;;;;5045653;28;20379;-86
2022/06/15 10:14:20;;;;;;;4.78;2.40;;;;;;;;;;5043911;28;20047;-88
2022/06/15 10:16:58;;;;;;;7.43;2.30;;;;;;;;;;5044534;28;20041;-87
2022/06/15 10:19:26;;;;;;;5.00;2.50;;;;;;;;;;5043991;28;20045;-85
2022/06/15 10:21:56;;;;;;;5.43;2.55;;;;;;;;;;5044880;28;20048;-86
2022/06/15 10:24:33;;;;;;;3.95;2.22;;;;;;;;;;5026378;28;20041;-87
2022/06/15 10:27:18;;;;;;;5.38;2.30;;;;;;;;;;5044565;28;20030;-89
2022/06/15 10:29:56;;;;;;;6.75;2.70;;;;;;;;;;5043547;28;20045;-87
2022/06/15 10:32:22;;;;;;;5.88;2.35;;;;;;;;;;5042169;28;20029;-88
2022/06/15 10:34:50;;;;;;;4.90;2.33;;;;;;;;;;5040359;28;20413;-86
2022/06/15 10:37:46;;;;;;;5.20;2.60;;;;;;;;;;5036159;28;20509;-85
2022/06/15 10:40:17;;;;;;;5.85;2.70;;;;;;;;;;5035388;28;20076;-85
2022/06/15 10:42:47;;;;;;;7.13;2.55;;;;;;;;;;5046418;28;20414;-86
2022/06/15 10:45:30;;;;;;;7.00;2.70;;;;;;;;;;5042678;28;20112;-86
2022/06/15 10:48:03;;;;;;;6.22;2.53;;;;;;;;;;5043058;28;20040;-88
2022/06/15 10:50:59;;;;;;;4.93;2.60;;;;;;;;;;5042448;28;20068;-87
2022/06/15 10:53:34;;;;;;;4.22;2.40;;;;;;;;;;5043210;28;20051;-87
2022/06/15 11:04:34;;;;;;;7.38;2.35;;;;;;;;;;5041685;28;20046;-87
2022/06/15 11:07:07;;;;;;;8.18;2.70;;;;;;;;;;5041720;28;20037;-86
2022/06/15 11:09:37;;;;;;;;;;;;;;;;;;5042662;28;20494;-85
2022/06/15 11:12:29;;;;;;;5.75;2.60;;;;;;;;;;5042045;28;19920;-86
2022/06/15 11:15:19;;;;;;;4.90;2.42;;;;;;;;;;5033517;28;20163;-87
2022/06/15 11:18:05;;;;;;;9.10;2.65;;;;;;;;;;5029416;28;20041;-87
2022/06/15 11:20:34;;;;;;;4.68;2.45;;;;;;;;;;5041782;28;20037;-86
2022/06/15 11:23:05;;;;;;;4.22;2.50;;;;;;;;;;5041681;28;20068;-88
2022/06/15 11:25:41;;;;;;;4.55;2.60;;;;;;;;;;5039738;28;20041;-88
2022/06/15 11:28:13;;;;;;;7.97;2.67;;;;;;;;;;5040403;28;20040;-86
2022/06/15 11:30:46;;;;;;;6.50;2.60;;;;;;;;;;5043001;28;20486;-87
2022/06/15 11:33:22;;;;;;;;;;;;;;;;;;5042246;28;20041;-86
2022/06/15 11:35:50;;;;;;;5.07;2.50;;;;;;;;;;5041210;28;19975;-86
2022/06/15 11:38:35;;;;;;;4.88;2.05;;;;;;;;;;5040737;28;20029;-85
2022/06/15 11:41:27;;;;;;;5.50;2.20;;;;;;;;;;5041440;28;20047;-87
2022/06/15 11:43:55;;;;;;;2.97;2.17;;;;;;;;;;5041127;28;20478;-86
2022/06/15 11:46:40;;;;;;;4.50;2.20;;;;;;;;;;5041333;28;20044;-88
2022/06/15 11:49:41;;;;;;;5.03;2.10;;;;;;;;;;5039384;28;20087;-87
2022/06/15 11:52:15;;;;;;;6.13;2.00;;;;;;;;;;5026169;28;20128;-86
2022/06/15 11:55:01;;;;;;;5.32;2.10;;;;;;;;;;5039623;28;20069;-87
2022/06/15 11:57:46;;;;;;;4.80;2.00;;;;;;;;;;5041080;28;20038;-85
2022/06/15 12:00:19;;;;;;;3.47;2.25;;;;;;;;;;5032981;28;20034;-87
2022/06/15 12:03:09;;;;;;;7.40;2.38;;;;;;;;;;5042926;28;20064;-87
2022/06/15 12:06:12;;;;;;;4.07;2.22;;;;;;;;;;5041416;28;20552;-88
2022/06/15 12:08:56;;;;;;;4.23;2.07;;;;;;;;;;5010027;28;20041;-88
2022/06/15 12:14:32;;;;;;;4.20;2.05;;;;;;;;;;5041282;28;20497;-87
2022/06/15 12:17:31;;;;;;;4.03;2.17;;;;;;;;;;5041220;28;20044;-87
2022/06/15 12:20:19;;;;;;;5.53;2.10;;;;;;;;;;5038651;28;20093;-88
2022/06/15 12:22:52;;;;;;;3.47;2.10;;;;;;;;;;5078267;22;20049;-87
2022/06/15 12:25:34;;;;;;;4.75;2.10;;;;;;;;;;5038386;28;20064;-87
2022/06/15 12:28:15;;;;;;;2.72;2.03;;;;;;;;;;5037845;28;20041;-87
2022/06/15 12:30:43;;;;;;;4.18;2.10;;;;;;;;;;5038704;28;20033;-87
2022/06/15 12:33:14;;;;;;;5.43;2.15;;;;;;;;;;5037017;28;20103;-88
2022/06/15 12:35:56;;;;;;;3.22;2.20;;;;;;;;;;5037527;28;20068;-87
2022/06/15 12:38:49;;;;;;;4.55;2.30;;;;;;;;;;5036724;28;20057;-87
2022/06/15 12:44:05;;;;;;;4.35;2.00;;;;;;;;;;5037789;28;20040;-87
2022/06/15 12:46:32;;;;;;;4.55;2.20;;;;;;;;;;5037432;28;20087;-87
2022/06/15 12:49:19;;;;;;;6.40;2.00;;;;;;;;;;5038361;28;20032;-87
2022/06/15 12:51:54;;;;;;;3.85;2.20;;;;;;;;;;5036557;28;20041;-87
2022/06/15 12:54:41;;;;;;;3.47;2.05;;;;;;;;;;5037875;28;20493;-87
2022/06/15 12:57:18;;;;;;;4.07;2.13;;;;;;;;;;5038004;28;20029;-86
2022/06/15 13:00:05;;;;;;;4.20;2.13;;;;;;;;;;5037914;28;20560;-87
2022/06/15 13:02:42;;;;;;;3.17;2.05;;;;;;;;;;5036846;28;20029;-87
2022/06/15 13:05:25;;;;;;;2.90;2.00;;;;;;;;;;5037694;28;20095;-87
2022/06/15 13:08:16;;;;;;;10.45;2.38;;;;;;;;;;5036922;28;20513;-87
2022/06/15 13:11:15;;;;;;;6.70;2.22;;;;;;;;;;5036860;28;20041;-87
2022/06/15 13:13:48;;;;;;;5.68;2.10;;;;;;;;;;5032974;28;20046;-87
2022/06/15 13:16:37;;;;;;;3.45;2.15;;;;;;;;;;5035629;28;20180;-87
2022/06/15 13:19:07;;;;;;;5.20;1.90;;;;;;;;;;5038501;28;20378;-87
2022/06/15 13:21:56;;;;;;;5.55;2.70;;;;;;;;;;5036562;28;20068;-86
2022/06/15 13:24:23;;;;;;;3.92;2.10;;;;;;;;;;5036582;28;20446;-87
2022/06/15 13:27:02;;;;;;;4.63;2.67;;;;;;;;;;5038041;28;20117;-87
2022/06/15 13:29:32;;;;;;;4.55;2.35;;;;;;;;;;5037462;28;20041;-87
2022/06/15 13:32:03;;;;;;;3.42;2.30;;;;;;;;;;5037490;28;20067;-87
2022/06/15 13:34:35;;;;;;;5.00;2.10;;;;;;;;;;5036327;28;20047;-84
2022/06/15 13:37:15;;;;;;;5.78;2.30;;;;;;;;;;5020260;28;20446;-87
2022/06/15 13:39:53;;;;;;;6.30;2.78;;;;;;;;;;5036747;28;20123;-87
2022/06/15 13:42:24;;;;;;;6.68;2.97;;;;;;;;;;5041449;28;20040;-85
2022/06/15 13:44:54;;;;;;;3.95;2.10;;;;;;;;;;5022957;28;20379;-87
2022/06/15 13:47:25;;;;;;;4.18;2.22;;;;;;;;;;5041683;28;20076;-87
2022/06/15 13:49:56;;;;;;;5.13;2.00;;;;;;;;;;5041669;28;20040;-87
2022/06/15 13:52:27;;;;;;;2.95;2.15;;;;;;;;;;5040065;28;20038;-87
2022/06/15 13:55:38;;;;;;;3.33;2.20;;;;;;;;;;5041122;28;20037;-87
2022/06/15 13:58:39;;;;;;;6.25;4.13;;;;;;;;;;5021215;28;20046;-86
2022/06/15 14:01:09;;;;;;;3.40;2.15;;;;;;;;;;5001584;28;20132;-87
2022/06/15 14:03:50;;;;;;;2.75;2.10;;;;;;;;;;5041788;28;20061;-87
2022/06/15 14:06:33;;;;;;;4.93;2.03;;;;;;;;;;5040798;28;20033;-87
2022/06/15 14:09:24;;;;;;;2.97;1.77;;;;;;;;;;5042019;28;20112;-87
2022/06/15 14:12:08;;;;;;;3.13;2.10;;;;;;;;;;5041208;28;20044;-87
2022/06/15 14:14:46;;;;;;;4.68;1.92;;;;;;;;;;5040613;28;20029;-87
2022/06/15 14:17:45;;;;;;;3.70;2.00;;;;;;;;;;5040406;28;20033;-88
2022/06/15 14:20:31;;;;;;;5.25;2.30;;;;;;;;;;5040549;28;20029;-87
2022/06/15 14:22:59;;;;;;;6.95;2.20;;;;;;;;;;5040915;28;20038;-87
2022/06/15 14:25:26;;;;;;;5.20;2.17;;;;;;;;;;5038833;28;20049;-87
2022/06/15 14:27:56;;;;;;;3.17;2.03;;;;;;;;;;5038747;28;20036;-87
2022/06/15 14:30:28;;;;;;;5.28;2.10;;;;;;;;;;5039023;28;20494;-87
2022/06/15 14:33:04;;;;;;;3.40;2.20;;;;;;;;;;5040943;28;20033;-85
2022/06/15 14:35:30;;;;;;;5.57;2.30;;;;;;;;;;5038479;28;20033;-87
2022/06/15 14:38:05;;;;;;;3.78;2.40;;;;;;;;;;5042122;28;20597;-86
2022/06/15 14:40:33;;;;;;;5.25;2.05;;;;;;;;;;5040924;28;20040;-87
2022/06/15 14:42:58;;;;;;;4.82;2.30;;;;;;;;;;5041484;28;20037;-86
2022/06/15 14:45:33;;;;;;;4.57;2.30;;;;;;;;;;5039254;28;20137;-88
2022/06/15 14:48:03;;;;;;;8.35;2.30;;;;;;;;;;5042790;28;20026;-86
2022/06/15 14:50:31;;;;;;;4.63;2.17;;;;;;;;;;5042564;28;20026;-86
2022/06/15 14:53:15;;;;;;;5.22;2.30;;;;;;;;;;5040851;28;20037;-86
2022/06/15 14:55:41;;;;;;;7.00;2.40;;;;;;;;;;5042096;28;20056;-86
2022/06/15 14:58:14;;;;;;;5.75;2.20;;;;;;;;;;5042055;28;20037;-86
2022/06/15 15:00:41;;;;;;;3.53;2.50;;;;;;;;;;5041155;28;20509;-86
2022/06/15 15:03:06;;;;;;;6.55;2.30;;;;;;;;;;5042131;28;20106;-86
2022/06/15 15:05:35;;;;;;;4.47;2.25;;;;;;;;;;5041938;28;20542;-86
2022/06/15 15:08:25;;;;;;;7.07;2.20;;;;;;;;;;5043117;28;20033;-84
2022/06/15 15:11:03;;;;;;;4.30;2.35;;;;;;;;;;5043384;28;20037;-85
2022/06/15 15:13:34;;;;;;;5.50;2.20;;;;;;;;;;5041909;28;20041;-83
2022/06/15 15:16:02;;;;;;;3.45;2.22;;;;;;;;;;5039757;28;20037;-84
2022/06/15 15:18:43;;;;;;;4.82;2.08;;;;;;;;;;5040733;28;20032;-83
2022/06/15 15:21:30;;;;;;;3.67;2.05;;;;;;;;;;5041014;28;20033;-83
2022/06/15 15:23:59;;;;;;;3.50;2.20;;;;;;;;;;5040753;28;20448;-83
2022/06/15 15:26:36;;;;;;;5.97;2.70;;;;;;;;;;5041978;28;20041;-85
2022/06/15 15:34:32;;;;;;;5.72;2.10;;;;;;;;;;5038573;28;20544;-86
2022/06/15 15:39:51;;;;;;;4.15;2.20;;;;;;;;;;5039988;28;20068;-85
2022/06/15 15:42:20;;;;;;;4.65;2.10;;;;;;;;;;5039733;28;20034;-85
2022/06/15 15:44:46;;;;;;;6.65;2.20;;;;;;;;;;5044117;28;20497;-86
2022/06/15 15:47:14;;;;;;;3.97;2.20;;;;;;;;;;5059316;28;20040;-86
2022/06/15 15:49:41;;;;;;;4.63;2.20;;;;;;;;;;5061365;28;20124;-86